Time;durP1;ratioP1;P1;durP2;ratioP2;P2;SDS_P1;SDS_P2;PMS_P1;PMS_P2;Temp;Humidity;BMP_temperature;BMP_pressure;BME280_temperature;BME280_humidity;BME280_pressure;Samples;Min_cycle;Max_cycle;Signal;HPM_P1;HPM_P2
2022/05/14 00:01:03;;;;;;;8.32;3.30;;;;;;;;;;5033155;28;20050;-67
2022/05/14 00:03:31;;;;;;;7.00;3.10;;;;;;;;;;5033439;28;20083;-68
2022/05/14 00:06:00;;;;;;;4.65;2.75;;;;;;;;;;5033230;28;20049;-68
2022/05/14 00:08:28;;;;;;;7.72;3.42;;;;;;;;;;5033476;28;20053;-66
2022/05/14 00:13:40;;;;;;;7.55;3.65;;;;;;;;;;5033041;28;20057;-67
2022/05/14 00:16:07;;;;;;;11.77;3.55;;;;;;;;;;5033270;28;20397;-67
2022/05/14 00:18:34;;;;;;;7.22;3.30;;;;;;;;;;5033250;28;20057;-66
2022/05/14 00:21:01;;;;;;;9.23;3.05;;;;;;;;;;5032946;28;20049;-66
2022/05/14 00:23:28;;;;;;;5.15;3.30;;;;;;;;;;5033114;28;20463;-67
2022/05/14 00:25:55;;;;;;;5.93;3.05;;;;;;;;;;5033363;28;20064;-67
2022/05/14 00:28:22;;;;;;;4.65;3.00;;;;;;;;;;5033145;28;20056;-66
2022/05/14 00:30:49;;;;;;;6.10;2.72;;;;;;;;;;5032945;28;20049;-66
2022/05/14 00:33:15;;;;;;;5.63;3.85;;;;;;;;;;5032652;28;20052;-66
2022/05/14 00:35:42;;;;;;;7.55;3.25;;;;;;;;;;5032800;28;20526;-66
2022/05/14 00:38:10;;;;;;;5.50;3.92;;;;;;;;;;5032759;28;20049;-66
2022/05/14 00:40:43;;;;;;;8.85;3.70;;;;;;;;;;5032570;28;20511;-67
2022/05/14 00:43:10;;;;;;;7.57;3.25;;;;;;;;;;5031762;28;20045;-66
2022/05/14 00:45:39;;;;;;;4.82;3.38;;;;;;;;;;5032583;28;20458;-67
2022/05/14 00:48:06;;;;;;;9.02;3.35;;;;;;;;;;5031377;28;20053;-66
2022/05/14 00:50:37;;;;;;;5.63;3.17;;;;;;;;;;5047771;28;20045;-67
2022/05/14 00:53:09;;;;;;;7.72;3.80;;;;;;;;;;5032177;28;20053;-66
2022/05/14 00:55:36;;;;;;;7.07;2.90;;;;;;;;;;5047932;28;20049;-66
2022/05/14 00:58:03;;;;;;;4.05;3.20;;;;;;;;;;5047824;28;20053;-67
2022/05/14 01:00:30;;;;;;;5.72;3.83;;;;;;;;;;5031342;28;20049;-66
2022/05/14 01:02:56;;;;;;;8.20;2.88;;;;;;;;;;5032203;28;20049;-67
2022/05/14 01:05:23;;;;;;;7.53;3.45;;;;;;;;;;5030986;28;20053;-67
2022/05/14 01:07:51;;;;;;;4.75;3.45;;;;;;;;;;5032194;28;20061;-67
2022/05/14 01:10:20;;;;;;;4.97;2.85;;;;;;;;;;5031304;28;20096;-67
2022/05/14 01:12:52;;;;;;;5.07;3.00;;;;;;;;;;5047212;28;20120;-67
2022/05/14 01:15:24;;;;;;;10.63;3.85;;;;;;;;;;5032106;28;20056;-67
2022/05/14 01:17:52;;;;;;;7.18;3.63;;;;;;;;;;5032161;28;20459;-67
2022/05/14 01:20:19;;;;;;;4.68;3.20;;;;;;;;;;5031913;28;20045;-67
2022/05/14 01:23:10;;;;;;;6.55;3.38;;;;;;;;;;5031984;28;20053;-68
2022/05/14 01:28:47;;;;;;;6.78;3.20;;;;;;;;;;5031446;28;20049;-67
2022/05/14 01:31:14;;;;;;;5.57;3.28;;;;;;;;;;5032346;28;20049;-67
2022/05/14 01:33:41;;;;;;;7.50;3.60;;;;;;;;;;5030741;28;20132;-68
2022/05/14 01:36:08;;;;;;;8.60;3.80;;;;;;;;;;5031792;28;20057;-67
2022/05/14 01:38:35;;;;;;;4.63;3.10;;;;;;;;;;5031927;28;20095;-66
2022/05/14 01:41:02;;;;;;;6.03;3.55;;;;;;;;;;5031567;28;20099;-67
2022/05/14 01:43:29;;;;;;;6.43;3.17;;;;;;;;;;5031936;28;20048;-67
2022/05/14 01:45:55;;;;;;;10.77;4.03;;;;;;;;;;5031844;28;20053;-66
2022/05/14 01:48:22;;;;;;;10.02;3.72;;;;;;;;;;5031812;28;20053;-66
2022/05/14 01:50:49;;;;;;;7.18;3.50;;;;;;;;;;5031722;28;20112;-66
2022/05/14 01:53:15;;;;;;;7.63;3.65;;;;;;;;;;5032075;28;20489;-66
2022/05/14 01:55:42;;;;;;;6.38;4.15;;;;;;;;;;5035683;28;20053;-67
2022/05/14 02:00:54;;;;;;;4.28;3.15;;;;;;;;;;5035608;28;20516;-67
2022/05/14 02:03:21;;;;;;;9.02;3.50;;;;;;;;;;5035540;28;20053;-67
2022/05/14 02:05:48;;;;;;;8.70;3.60;;;;;;;;;;5035524;28;20053;-67
2022/05/14 02:08:14;;;;;;;4.45;2.88;;;;;;;;;;5035508;28;20060;-68
2022/05/14 02:10:41;;;;;;;6.60;3.42;;;;;;;;;;5035637;28;20078;-67
2022/05/14 02:13:09;;;;;;;5.38;3.05;;;;;;;;;;5035507;28;20050;-67
2022/05/14 02:15:36;;;;;;;4.22;3.30;;;;;;;;;;5035357;28;20045;-67
2022/05/14 02:18:03;;;;;;;7.78;3.15;;;;;;;;;;5035460;28;20064;-67
2022/05/14 02:20:30;;;;;;;7.20;3.85;;;;;;;;;;5035314;28;20123;-67
2022/05/14 02:22:56;;;;;;;3.95;3.33;;;;;;;;;;5035300;28;20475;-67
2022/05/14 02:25:23;;;;;;;5.88;3.35;;;;;;;;;;5035108;28;20557;-67
2022/05/14 02:27:50;;;;;;;6.35;3.33;;;;;;;;;;5035371;28;20054;-67
2022/05/14 02:30:16;;;;;;;5.50;3.85;;;;;;;;;;5035221;28;20128;-67
2022/05/14 02:32:43;;;;;;;8.80;3.30;;;;;;;;;;5034925;28;20053;-67
2022/05/14 02:35:09;;;;;;;11.55;3.42;;;;;;;;;;5034849;28;20045;-67
2022/05/14 02:37:37;;;;;;;6.53;3.10;;;;;;;;;;5035295;28;20056;-67
2022/05/14 02:40:04;;;;;;;5.22;3.85;;;;;;;;;;5034919;28;20049;-67
2022/05/14 02:42:31;;;;;;;4.88;3.42;;;;;;;;;;5034904;28;20053;-68
2022/05/14 02:44:57;;;;;;;9.52;3.63;;;;;;;;;;5034671;28;20052;-67
2022/05/14 02:47:24;;;;;;;8.75;3.67;;;;;;;;;;5034910;28;20053;-67
2022/05/14 02:49:51;;;;;;;8.32;3.90;;;;;;;;;;5034646;28;20475;-67
2022/05/14 02:52:17;;;;;;;6.03;3.40;;;;;;;;;;5034777;28;20057;-67
2022/05/14 02:54:44;;;;;;;6.95;3.47;;;;;;;;;;5034738;28;20049;-67
2022/05/14 02:57:10;;;;;;;8.10;3.85;;;;;;;;;;5034631;28;20050;-67
2022/05/14 02:59:37;;;;;;;7.15;3.78;;;;;;;;;;5034697;28;20053;-67
2022/05/14 03:02:04;;;;;;;11.63;3.97;;;;;;;;;;5034397;28;20523;-67
2022/05/14 03:04:32;;;;;;;8.32;3.38;;;;;;;;;;5034350;28;20065;-67
2022/05/14 03:06:59;;;;;;;8.23;3.78;;;;;;;;;;5034074;28;20112;-67
2022/05/14 03:09:26;;;;;;;6.30;3.85;;;;;;;;;;5034417;28;20050;-67
2022/05/14 03:11:52;;;;;;;7.60;3.75;;;;;;;;;;5034355;28;20125;-67
2022/05/14 03:14:19;;;;;;;4.05;3.05;;;;;;;;;;5034178;28;20076;-67
2022/05/14 03:16:46;;;;;;;7.30;3.75;;;;;;;;;;5034135;28;20052;-67
2022/05/14 03:19:13;;;;;;;8.25;3.75;;;;;;;;;;5034224;28;20574;-67
2022/05/14 03:21:40;;;;;;;8.10;3.67;;;;;;;;;;5034364;28;20451;-67
2022/05/14 03:24:07;;;;;;;5.80;3.60;;;;;;;;;;5034302;28;20042;-67
2022/05/14 03:26:34;;;;;;;5.45;3.67;;;;;;;;;;5034144;28;20050;-68
2022/05/14 03:29:00;;;;;;;6.72;3.75;;;;;;;;;;5034009;28;20451;-67
2022/05/14 03:31:27;;;;;;;6.95;3.65;;;;;;;;;;5033857;28;20050;-67
2022/05/14 03:33:54;;;;;;;7.78;3.60;;;;;;;;;;5033858;28;20077;-67
2022/05/14 03:36:20;;;;;;;9.32;3.97;;;;;;;;;;5033849;28;20057;-67
2022/05/14 03:38:47;;;;;;;8.70;3.80;;;;;;;;;;5033939;28;20466;-67
2022/05/14 03:41:14;;;;;;;6.55;3.72;;;;;;;;;;5034391;28;20049;-67
2022/05/14 03:43:40;;;;;;;8.02;3.58;;;;;;;;;;5033719;28;20737;-68
2022/05/14 03:46:07;;;;;;;9.00;3.63;;;;;;;;;;5056649;22;20590;-70
2022/05/14 03:48:34;;;;;;;10.00;4.00;;;;;;;;;;5033788;28;20488;-70
2022/05/14 03:51:00;;;;;;;5.45;3.53;;;;;;;;;;5033796;28;20492;-69
2022/05/14 03:53:27;;;;;;;5.93;3.38;;;;;;;;;;5033851;28;20053;-69
2022/05/14 03:55:54;;;;;;;5.13;3.53;;;;;;;;;;5033637;28;20054;-69
2022/05/14 03:58:21;;;;;;;7.38;3.60;;;;;;;;;;5033338;28;20492;-68
2022/05/14 04:00:48;;;;;;;5.45;4.10;;;;;;;;;;5033573;28;20064;-70
2022/05/14 04:03:15;;;;;;;6.57;4.30;;;;;;;;;;5033409;28;20133;-68
2022/05/14 04:05:42;;;;;;;8.90;4.28;;;;;;;;;;5033307;28;20091;-69
2022/05/14 04:08:08;;;;;;;7.40;3.80;;;;;;;;;;5033482;28;20057;-70
2022/05/14 04:10:35;;;;;;;6.43;3.38;;;;;;;;;;5033490;28;20065;-69
2022/05/14 04:13:02;;;;;;;4.15;3.35;;;;;;;;;;5033069;28;20050;-69
2022/05/14 04:15:29;;;;;;;6.03;4.22;;;;;;;;;;5033042;28;20049;-69
2022/05/14 04:17:55;;;;;;;7.88;5.63;;;;;;;;;;5033288;28;20565;-68
2022/05/14 04:20:22;;;;;;;6.38;4.20;;;;;;;;;;5033206;28;20095;-69
2022/05/14 04:22:50;;;;;;;6.25;4.00;;;;;;;;;;5033009;28;20428;-68
2022/05/14 04:25:18;;;;;;;7.35;3.75;;;;;;;;;;5033009;28;20413;-69
2022/05/14 04:27:45;;;;;;;6.82;4.03;;;;;;;;;;5032861;28;20053;-69
2022/05/14 04:30:13;;;;;;;8.65;3.78;;;;;;;;;;5032947;28;20057;-68
2022/05/14 04:32:39;;;;;;;5.20;4.20;;;;;;;;;;5032864;28;20053;-68
2022/05/14 04:35:07;;;;;;;5.82;4.10;;;;;;;;;;5032911;28;20052;-69
2022/05/14 04:37:35;;;;;;;8.27;4.18;;;;;;;;;;5032960;28;20049;-68
2022/05/14 04:40:02;;;;;;;9.65;4.57;;;;;;;;;;5032751;28;20053;-68
2022/05/14 04:42:29;;;;;;;7.40;4.72;;;;;;;;;;5047949;28;20053;-68
2022/05/14 04:44:56;;;;;;;8.35;4.25;;;;;;;;;;5032672;28;20087;-68
2022/05/14 04:47:22;;;;;;;4.80;3.60;;;;;;;;;;5039056;28;20056;-69
2022/05/14 04:49:49;;;;;;;5.68;3.60;;;;;;;;;;5033714;28;20500;-69
2022/05/14 04:52:16;;;;;;;5.70;3.90;;;;;;;;;;5032546;28;20059;-68
2022/05/14 04:54:43;;;;;;;7.40;3.75;;;;;;;;;;5032428;28;20052;-69
2022/05/14 04:57:09;;;;;;;5.50;3.88;;;;;;;;;;5032573;28;20049;-68
2022/05/14 04:59:36;;;;;;;9.70;4.43;;;;;;;;;;5032363;28;20489;-68
2022/05/14 05:04:49;;;;;;;5.20;3.75;;;;;;;;;;5032333;28;20042;-69
2022/05/14 05:07:15;;;;;;;6.75;4.18;;;;;;;;;;5032123;28;20053;-69
2022/05/14 05:09:42;;;;;;;6.75;3.70;;;;;;;;;;5047757;28;20060;-68
2022/05/14 05:12:09;;;;;;;6.88;3.40;;;;;;;;;;5032049;28;20053;-69
2022/05/14 05:14:37;;;;;;;4.32;3.60;;;;;;;;;;5032056;28;20049;-69
2022/05/14 05:17:04;;;;;;;6.53;4.85;;;;;;;;;;5032087;28;20052;-69
2022/05/14 05:19:31;;;;;;;6.28;3.60;;;;;;;;;;5032193;28;20049;-69
2022/05/14 05:21:57;;;;;;;6.00;3.90;;;;;;;;;;5031894;28;20464;-68
2022/05/14 05:24:24;;;;;;;6.75;4.45;;;;;;;;;;5031956;28;20042;-69
2022/05/14 05:26:50;;;;;;;9.80;4.28;;;;;;;;;;5031980;28;20115;-68
2022/05/14 05:29:18;;;;;;;6.30;3.65;;;;;;;;;;5031477;28;20049;-69
2022/05/14 05:31:45;;;;;;;11.30;3.70;;;;;;;;;;5032290;28;20049;-68
2022/05/14 05:34:11;;;;;;;8.02;3.80;;;;;;;;;;5031824;28;20099;-69
2022/05/14 05:36:38;;;;;;;5.13;3.75;;;;;;;;;;5031773;28;20049;-69
2022/05/14 05:39:05;;;;;;;7.15;3.70;;;;;;;;;;5031944;28;20050;-68
2022/05/14 05:41:31;;;;;;;8.77;4.00;;;;;;;;;;5032274;28;20413;-69
2022/05/14 05:43:58;;;;;;;5.68;3.75;;;;;;;;;;5031929;28;20099;-69
2022/05/14 05:46:25;;;;;;;4.90;3.83;;;;;;;;;;5031720;28;20491;-69
2022/05/14 05:48:51;;;;;;;5.63;3.65;;;;;;;;;;5031616;28;20058;-68
2022/05/14 05:51:18;;;;;;;9.38;4.15;;;;;;;;;;5031845;28;20049;-69
2022/05/14 05:56:51;;;;;;;6.30;4.13;;;;;;;;;;5031876;28;20055;-69
2022/05/14 05:59:19;;;;;;;5.95;3.70;;;;;;;;;;5031667;28;20546;-69
2022/05/14 06:01:46;;;;;;;7.78;3.78;;;;;;;;;;5031757;28;20049;-69
2022/05/14 06:04:12;;;;;;;8.07;4.50;;;;;;;;;;5030449;28;20077;-69
2022/05/14 06:06:42;;;;;;;6.15;3.40;;;;;;;;;;5031751;28;20049;-70
2022/05/14 06:09:12;;;;;;;7.28;3.47;;;;;;;;;;5031957;28;20049;-69
2022/05/14 06:11:41;;;;;;;5.57;3.65;;;;;;;;;;5031341;28;20050;-69
2022/05/14 06:14:09;;;;;;;4.30;3.10;;;;;;;;;;5031389;28;20085;-69
2022/05/14 06:16:36;;;;;;;6.03;3.22;;;;;;;;;;5031662;28;20060;-68
2022/05/14 06:19:02;;;;;;;4.72;3.10;;;;;;;;;;5031477;28;20107;-70
2022/05/14 06:21:29;;;;;;;6.38;4.15;;;;;;;;;;5031427;28;20053;-69
2022/05/14 06:23:56;;;;;;;9.48;3.65;;;;;;;;;;5031554;28;20053;-69
2022/05/14 06:26:23;;;;;;;6.90;3.92;;;;;;;;;;5031277;28;20056;-69
2022/05/14 06:28:50;;;;;;;6.55;3.42;;;;;;;;;;5031643;28;20107;-69
2022/05/14 06:31:17;;;;;;;9.27;3.67;;;;;;;;;;5031419;28;20420;-68
2022/05/14 06:33:45;;;;;;;6.57;3.35;;;;;;;;;;5031235;28;20546;-69
2022/05/14 06:36:11;;;;;;;5.00;3.22;;;;;;;;;;5031233;28;20488;-69
2022/05/14 06:38:38;;;;;;;7.22;4.05;;;;;;;;;;5031346;28;20064;-68
2022/05/14 06:41:11;;;;;;;7.25;3.85;;;;;;;;;;5032666;28;20103;-69
2022/05/14 06:43:38;;;;;;;3.97;3.05;;;;;;;;;;5035194;28;20053;-69
2022/05/14 06:46:05;;;;;;;7.82;3.05;;;;;;;;;;5035351;28;20427;-68
2022/05/14 06:48:31;;;;;;;4.47;3.00;;;;;;;;;;5035027;28;20107;-69
2022/05/14 06:51:00;;;;;;;8.38;3.17;;;;;;;;;;5034821;28;20053;-69
2022/05/14 06:53:27;;;;;;;6.30;3.08;;;;;;;;;;5049963;28;20061;-69
2022/05/14 06:55:55;;;;;;;6.85;2.92;;;;;;;;;;5033648;28;20049;-69
2022/05/14 06:58:24;;;;;;;6.18;2.88;;;;;;;;;;5033774;28;20053;-69
2022/05/14 07:00:50;;;;;;;3.75;2.80;;;;;;;;;;5049826;28;20480;-70
2022/05/14 07:08:49;;;;;;;5.03;2.70;;;;;;;;;;5034777;28;20069;-68
2022/05/14 07:11:16;;;;;;;3.92;2.33;;;;;;;;;;5034339;28;20088;-69
2022/05/14 07:13:42;;;;;;;5.18;2.70;;;;;;;;;;5034435;28;20496;-70
2022/05/14 07:16:13;;;;;;;4.30;2.63;;;;;;;;;;5038053;28;20076;-68
2022/05/14 07:18:40;;;;;;;2.72;2.30;;;;;;;;;;5034515;28;20080;-69
2022/05/14 07:21:07;;;;;;;7.63;2.28;;;;;;;;;;5034191;28;20053;-69
2022/05/14 07:23:33;;;;;;;5.60;2.63;;;;;;;;;;5034242;28;20045;-69
2022/05/14 07:26:05;;;;;;;6.93;2.35;;;;;;;;;;5034135;28;20107;-69
2022/05/14 07:28:33;;;;;;;5.20;2.25;;;;;;;;;;5034204;28;20049;-69
2022/05/14 07:31:03;;;;;;;3.95;2.50;;;;;;;;;;5033847;28;20111;-69
2022/05/14 07:33:31;;;;;;;3.83;2.30;;;;;;;;;;5034242;28;20049;-69
2022/05/14 07:36:00;;;;;;;3.85;2.28;;;;;;;;;;5034025;28;20045;-69
2022/05/14 07:38:27;;;;;;;7.82;2.40;;;;;;;;;;5032994;28;20053;-69
2022/05/14 07:40:54;;;;;;;7.35;2.67;;;;;;;;;;5032528;28;20140;-69
2022/05/14 07:43:22;;;;;;;3.08;2.00;;;;;;;;;;5049158;28;20056;-69
2022/05/14 07:45:51;;;;;;;5.38;2.55;;;;;;;;;;5032574;28;20431;-69
2022/05/14 07:48:27;;;;;;;4.72;1.88;;;;;;;;;;5034012;28;20107;-68
2022/05/14 07:50:53;;;;;;;4.30;2.10;;;;;;;;;;5033140;28;20053;-70
2022/05/14 07:53:20;;;;;;;6.85;1.50;;;;;;;;;;5049249;28;20056;-68
2022/05/14 07:55:47;;;;;;;3.92;1.55;;;;;;;;;;5033553;28;20053;-69
2022/05/14 07:58:14;;;;;;;4.78;1.90;;;;;;;;;;5033563;28;20058;-68
2022/05/14 08:00:41;;;;;;;3.13;2.05;;;;;;;;;;5033460;28;20103;-69
2022/05/14 08:03:08;;;;;;;1.55;1.23;;;;;;;;;;5033352;28;20045;-68
2022/05/14 08:05:35;;;;;;;4.82;1.30;;;;;;;;;;5033517;28;20053;-69
2022/05/14 08:08:02;;;;;;;2.92;1.40;;;;;;;;;;5033422;28;20061;-68
2022/05/14 08:10:29;;;;;;;5.28;1.40;;;;;;;;;;5033738;28;20472;-68
2022/05/14 08:12:56;;;;;;;4.80;1.33;;;;;;;;;;5033084;28;20063;-69
2022/05/14 08:15:25;;;;;;;5.05;1.40;;;;;;;;;;5033337;28;20163;-69
2022/05/14 08:17:51;;;;;;;3.45;1.48;;;;;;;;;;5048494;28;20050;-69
2022/05/14 08:20:18;;;;;;;3.72;1.42;;;;;;;;;;5033208;28;20049;-69
2022/05/14 08:25:31;;;;;;;2.83;1.40;;;;;;;;;;5033282;28;20053;-69
2022/05/14 08:27:57;;;;;;;4.85;1.20;;;;;;;;;;5033132;28;20051;-70
2022/05/14 08:30:27;;;;;;;2.63;1.40;;;;;;;;;;5033142;28;20123;-69
2022/05/14 08:32:54;;;;;;;4.15;1.40;;;;;;;;;;5032718;28;20050;-69
2022/05/14 08:35:22;;;;;;;2.00;1.00;;;;;;;;;;5032810;28;20053;-69
2022/05/14 08:37:50;;;;;;;4.22;1.40;;;;;;;;;;5032709;28;20053;-69
2022/05/14 08:40:34;;;;;;;3.67;1.23;;;;;;;;;;5033046;28;20440;-69
2022/05/14 08:43:02;;;;;;;2.55;1.42;;;;;;;;;;5047898;28;20112;-69
2022/05/14 08:45:33;;;;;;;2.83;1.73;;;;;;;;;;5032601;28;20080;-69
2022/05/14 08:48:14;;;;;;;3.17;1.38;;;;;;;;;;5031442;28;20508;-69
2022/05/14 08:50:42;;;;;;;5.00;1.45;;;;;;;;;;5032768;28;20049;-70
2022/05/14 08:53:12;;;;;;;3.88;1.20;;;;;;;;;;5032391;28;20504;-70
2022/05/14 08:56:20;;;;;;;2.25;1.17;;;;;;;;;;5032534;28;20049;-70
2022/05/14 08:58:47;;;;;;;3.60;1.30;;;;;;;;;;5032399;28;20049;-69
2022/05/14 09:01:20;;;;;;;3.65;1.35;;;;;;;;;;5032445;28;20064;-69
2022/05/14 09:03:47;;;;;;;3.10;1.50;;;;;;;;;;5030641;28;20084;-70
2022/05/14 09:06:13;;;;;;;8.27;1.45;;;;;;;;;;5032174;28;20049;-70
2022/05/14 09:08:40;;;;;;;3.50;1.20;;;;;;;;;;5032235;28;20496;-69
2022/05/14 09:11:19;;;;;;;6.47;1.30;;;;;;;;;;5032394;28;20060;-70
2022/05/14 09:13:57;;;;;;;5.60;1.70;;;;;;;;;;5032409;28;20425;-69
2022/05/14 09:16:31;;;;;;;4.10;1.50;;;;;;;;;;5032158;28;20042;-70
2022/05/14 09:18:58;;;;;;;4.57;1.63;;;;;;;;;;5032621;28;20458;-69
2022/05/14 09:21:24;;;;;;;4.25;1.27;;;;;;;;;;5030672;28;20045;-69
2022/05/14 09:23:55;;;;;;;3.40;1.40;;;;;;;;;;5032045;28;20049;-70
2022/05/14 09:26:37;;;;;;;4.50;1.20;;;;;;;;;;5031961;28;20495;-69
2022/05/14 09:29:26;;;;;;;7.30;1.50;;;;;;;;;;5031774;28;20575;-70
2022/05/14 09:31:55;;;;;;;3.30;1.58;;;;;;;;;;5031763;28;20045;-70
2022/05/14 09:34:22;;;;;;;4.03;1.48;;;;;;;;;;5032164;28;20045;-70
2022/05/14 09:36:51;;;;;;;3.50;1.48;;;;;;;;;;5031713;28;20045;-70
2022/05/14 09:39:20;;;;;;;4.18;1.60;;;;;;;;;;5031831;28;20500;-70
2022/05/14 09:41:52;;;;;;;3.90;2.00;;;;;;;;;;5031813;28;20057;-69
2022/05/14 09:44:23;;;;;;;2.42;1.52;;;;;;;;;;5030527;28;20052;-69
2022/05/14 09:46:51;;;;;;;2.60;1.40;;;;;;;;;;5032448;28;20050;-69
2022/05/14 09:49:21;;;;;;;5.70;1.45;;;;;;;;;;5031700;28;20057;-69
2022/05/14 09:51:52;;;;;;;13.13;1.63;;;;;;;;;;5031703;28;20099;-69
2022/05/14 09:54:22;;;;;;;3.67;1.70;;;;;;;;;;5030564;28;20462;-69
2022/05/14 09:57:09;;;;;;;6.07;1.20;;;;;;;;;;5046799;28;20471;-69
2022/05/14 09:59:46;;;;;;;2.08;1.40;;;;;;;;;;5030709;28;20054;-69
2022/05/14 10:02:24;;;;;;;5.82;1.30;;;;;;;;;;5030306;28;20077;-68
2022/05/14 10:05:07;;;;;;;4.40;1.30;;;;;;;;;;5030383;28;20084;-69
2022/05/14 10:07:40;;;;;;;5.15;1.33;;;;;;;;;;5030769;28;20170;-69
2022/05/14 10:10:32;;;;;;;2.47;1.20;;;;;;;;;;5031402;28;20057;-69
2022/05/14 10:13:16;;;;;;;4.10;1.00;;;;;;;;;;5033243;28;20057;-69
2022/05/14 10:15:52;;;;;;;4.28;1.63;;;;;;;;;;5034670;28;20053;-70
2022/05/14 10:18:37;;;;;;;3.60;1.27;;;;;;;;;;5035010;28;20099;-70
2022/05/14 10:21:26;;;;;;;4.05;1.48;;;;;;;;;;5035205;28;20064;-69
2022/05/14 10:27:28;;;;;;;2.58;1.13;;;;;;;;;;5035350;28;20049;-69
2022/05/14 10:29:59;;;;;;;6.75;1.40;;;;;;;;;;5035338;28;20060;-70
2022/05/14 10:32:29;;;;;;;4.22;1.42;;;;;;;;;;5034118;28;20081;-69
2022/05/14 10:35:19;;;;;;;2.55;0.90;;;;;;;;;;5050500;28;20049;-69
2022/05/14 10:37:47;;;;;;;3.70;1.20;;;;;;;;;;5034018;28;20090;-69
2022/05/14 10:40:34;;;;;;;6.18;1.00;;;;;;;;;;5033919;28;20103;-69
2022/05/14 10:43:22;;;;;;;3.70;0.98;;;;;;;;;;5034774;28;20496;-70
2022/05/14 10:45:51;;;;;;;4.60;1.25;;;;;;;;;;5034975;28;20057;-69
2022/05/14 10:48:30;;;;;;;5.22;1.60;;;;;;;;;;5033969;28;20046;-69
2022/05/14 10:50:56;;;;;;;4.35;0.95;;;;;;;;;;5033356;28;20511;-69
2022/05/14 10:53:23;;;;;;;3.58;0.98;;;;;;;;;;5034707;28;20496;-70
2022/05/14 10:55:58;;;;;;;2.60;0.80;;;;;;;;;;5034866;28;20104;-69
2022/05/14 10:58:51;;;;;;;2.78;0.90;;;;;;;;;;5034856;28;20049;-69
2022/05/14 11:01:32;;;;;;;1.75;0.85;;;;;;;;;;5028988;28;20057;-70
2022/05/14 11:04:13;;;;;;;5.90;1.05;;;;;;;;;;5033513;28;20053;-69
2022/05/14 11:06:55;;;;;;;5.60;1.10;;;;;;;;;;5033756;28;20077;-69
2022/05/14 11:09:34;;;;;;;2.63;1.05;;;;;;;;;;5034689;28;20076;-68
2022/05/14 11:12:03;;;;;;;4.13;1.27;;;;;;;;;;5034487;28;20054;-69
2022/05/14 11:14:42;;;;;;;3.33;1.67;;;;;;;;;;5034624;28;20449;-70
2022/05/14 11:17:33;;;;;;;3.40;1.00;;;;;;;;;;5034275;28;20048;-70
2022/05/14 11:20:03;;;;;;;2.47;1.00;;;;;;;;;;5033768;28;20123;-70
2022/05/14 11:22:37;;;;;;;2.95;1.25;;;;;;;;;;5034406;28;20053;-70
2022/05/14 11:25:13;;;;;;;2.83;0.77;;;;;;;;;;5033259;28;20054;-69
2022/05/14 11:27:40;;;;;;;4.32;1.20;;;;;;;;;;5033806;28;20060;-70
2022/05/14 11:30:08;;;;;;;1.95;0.73;;;;;;;;;;5049521;28;20096;-69
2022/05/14 11:32:47;;;;;;;4.88;1.10;;;;;;;;;;5033787;28;20056;-69
2022/05/14 11:35:14;;;;;;;1.70;0.77;;;;;;;;;;5033082;28;20439;-70
2022/05/14 11:37:47;;;;;;;1.15;0.90;;;;;;;;;;5032898;28;20050;-69
2022/05/14 11:40:26;;;;;;;;;;;;;;;;;;5034093;28;20054;-70
2022/05/14 11:43:22;;;;;;;3.80;0.90;;;;;;;;;;5033779;28;20299;-70
2022/05/14 11:46:04;;;;;;;2.03;0.90;;;;;;;;;;5048782;28;20057;-70
2022/05/14 11:48:54;;;;;;;3.93;0.90;;;;;;;;;;5034593;28;20064;-69
2022/05/14 11:51:56;;;;;;;3.10;1.13;;;;;;;;;;5033643;28;20056;-70
2022/05/14 11:54:30;;;;;;;2.22;0.63;;;;;;;;;;5024680;28;20108;-71
2022/05/14 11:57:25;;;;;;;5.15;1.42;;;;;;;;;;5032359;28;20057;-70
2022/05/14 12:00:06;;;;;;;4.38;1.58;;;;;;;;;;5048823;28;20060;-70
2022/05/14 12:02:36;;;;;;;24.48;12.98;;;;;;;;;;5033566;28;20049;-70
2022/05/14 12:05:03;;;;;;;2.28;0.90;;;;;;;;;;5033552;28;20057;-70
2022/05/14 12:07:48;;;;;;;4.93;0.85;;;;;;;;;;5048745;28;20492;-70
2022/05/14 12:10:21;;;;;;;2.83;0.93;;;;;;;;;;5033330;28;20049;-71
2022/05/14 12:12:59;;;;;;;2.88;0.95;;;;;;;;;;5033451;28;20060;-70
2022/05/14 12:15:26;;;;;;;1.80;0.88;;;;;;;;;;5050162;28;20046;-70
2022/05/14 12:17:54;;;;;;;2.95;0.70;;;;;;;;;;5034287;28;20049;-71
2022/05/14 12:20:23;;;;;;;3.00;0.93;;;;;;;;;;5032127;28;20057;-70
2022/05/14 12:22:56;;;;;;;3.65;0.60;;;;;;;;;;5031843;28;20053;-71
2022/05/14 12:25:37;;;;;;;1.73;1.20;;;;;;;;;;5033003;28;20095;-70
2022/05/14 12:28:04;;;;;;;3.03;0.68;;;;;;;;;;5033057;28;20056;-69
2022/05/14 12:33:21;;;;;;;2.33;0.60;;;;;;;;;;5032899;28;20049;-70
2022/05/14 12:35:55;;;;;;;1.52;0.73;;;;;;;;;;5032829;28;20136;-70
2022/05/14 12:38:28;;;;;;;3.50;1.00;;;;;;;;;;5032837;28;20049;-69
2022/05/14 12:40:55;;;;;;;3.83;0.80;;;;;;;;;;5031611;28;20075;-70
2022/05/14 12:43:22;;;;;;;2.03;0.70;;;;;;;;;;5031638;28;20053;-70
2022/05/14 12:46:06;;;;;;;2.65;0.80;;;;;;;;;;5031756;28;20057;-69
2022/05/14 12:48:42;;;;;;;2.25;0.80;;;;;;;;;;5031955;28;20535;-71
2022/05/14 12:51:09;;;;;;;1.05;0.80;;;;;;;;;;5047627;28;20049;-70
2022/05/14 12:53:40;;;;;;;2.13;0.75;;;;;;;;;;5032543;28;20049;-71
2022/05/14 12:56:07;;;;;;;2.33;0.70;;;;;;;;;;5032332;28;20053;-70
2022/05/14 12:58:34;;;;;;;2.13;0.77;;;;;;;;;;5031271;28;20049;-72
2022/05/14 13:01:02;;;;;;;1.83;0.70;;;;;;;;;;5047487;28;20500;-71
2022/05/14 13:03:41;;;;;;;3.72;0.65;;;;;;;;;;5031224;28;20049;-70
2022/05/14 13:06:17;;;;;;;4.90;0.80;;;;;;;;;;5031199;28;20426;-70
2022/05/14 13:08:46;;;;;;;1.15;0.60;;;;;;;;;;5031443;28;20049;-71
2022/05/14 13:11:22;;;;;;;1.20;0.70;;;;;;;;;;5031102;28;20053;-69
2022/05/14 13:13:50;;;;;;;1.77;0.80;;;;;;;;;;5031025;28;20562;-71
2022/05/14 13:16:22;;;;;;;1.67;0.60;;;;;;;;;;5032116;28;20052;-70
2022/05/14 13:19:14;;;;;;;1.73;1.10;;;;;;;;;;5031433;28;20060;-70
2022/05/14 13:21:52;;;;;;;1.02;0.70;;;;;;;;;;5026550;28;20057;-70
2022/05/14 13:24:23;;;;;;;2.40;0.90;;;;;;;;;;5032029;28;20049;-70
2022/05/14 13:26:51;;;;;;;2.85;1.05;;;;;;;;;;5032056;28;20041;-70
2022/05/14 13:29:26;;;;;;;2.03;0.90;;;;;;;;;;5031924;28;20061;-70
2022/05/14 13:32:11;;;;;;;0.65;0.50;;;;;;;;;;5031989;28;20056;-70
2022/05/14 13:37:37;;;;;;;3.05;0.70;;;;;;;;;;5031840;28;20049;-70
2022/05/14 13:40:29;;;;;;;3.70;0.70;;;;;;;;;;5030695;28;20081;-69
2022/05/14 13:43:17;;;;;;;2.20;0.75;;;;;;;;;;5030670;28;20450;-70
2022/05/14 13:45:52;;;;;;;2.58;0.77;;;;;;;;;;5030522;28;20049;-70
2022/05/14 13:48:32;;;;;;;1.00;0.73;;;;;;;;;;5031152;28;20050;-70
2022/05/14 13:51:22;;;;;;;3.05;0.80;;;;;;;;;;5031262;28;20053;-69
2022/05/14 13:53:50;;;;;;;2.30;1.20;;;;;;;;;;5046812;28;20061;-70
2022/05/14 13:56:19;;;;;;;1.95;0.85;;;;;;;;;;5031548;28;20054;-70
2022/05/14 13:58:58;;;;;;;2.50;0.60;;;;;;;;;;5031691;28;20567;-69
2022/05/14 14:01:37;;;;;;;1.90;0.95;;;;;;;;;;5031669;28;20476;-69
2022/05/14 14:04:14;;;;;;;1.42;0.70;;;;;;;;;;5031750;28;20050;-69
2022/05/14 14:06:40;;;;;;;4.25;0.90;;;;;;;;;;5031587;28;20053;-70
2022/05/14 14:09:07;;;;;;;2.83;0.80;;;;;;;;;;5031511;28;20061;-69
2022/05/14 14:11:34;;;;;;;1.10;0.60;;;;;;;;;;5047169;28;20428;-70
2022/05/14 14:14:01;;;;;;;2.28;0.65;;;;;;;;;;5031776;28;20096;-70
2022/05/14 14:16:27;;;;;;;2.53;0.75;;;;;;;;;;5031642;28;20054;-69
2022/05/14 14:18:54;;;;;;;2.10;0.63;;;;;;;;;;5031605;28;20428;-69
2022/05/14 14:21:21;;;;;;;3.78;1.10;;;;;;;;;;5031256;28;20045;-70
2022/05/14 14:23:49;;;;;;;1.48;0.68;;;;;;;;;;5030276;28;20057;-69
2022/05/14 14:26:16;;;;;;;2.28;0.70;;;;;;;;;;5046853;28;20057;-69
2022/05/14 14:28:46;;;;;;;2.05;0.52;;;;;;;;;;5030369;28;20501;-69
2022/05/14 14:31:14;;;;;;;0.93;0.60;;;;;;;;;;5031191;28;20050;-69
2022/05/14 14:33:41;;;;;;;3.50;0.90;;;;;;;;;;5031272;28;20599;-69
2022/05/14 14:36:08;;;;;;;1.27;0.77;;;;;;;;;;5031210;28;20049;-69
2022/05/14 14:38:35;;;;;;;2.90;0.70;;;;;;;;;;5031464;28;20422;-69
2022/05/14 14:41:02;;;;;;;1.80;0.60;;;;;;;;;;5031330;28;20053;-69
2022/05/14 14:43:29;;;;;;;3.53;0.90;;;;;;;;;;5031342;28;20116;-70
2022/05/14 14:45:56;;;;;;;2.15;0.60;;;;;;;;;;5032398;28;20111;-70
2022/05/14 14:48:27;;;;;;;2.80;0.70;;;;;;;;;;5032090;28;20069;-70
2022/05/14 14:50:55;;;;;;;1.42;0.70;;;;;;;;;;5031636;28;20099;-70
2022/05/14 14:53:21;;;;;;;1.80;0.60;;;;;;;;;;5031767;28;20054;-70
2022/05/14 14:55:48;;;;;;;1.73;0.77;;;;;;;;;;5031333;28;20053;-69
2022/05/14 14:58:15;;;;;;;2.42;0.65;;;;;;;;;;5031889;28;20050;-69
2022/05/14 15:00:44;;;;;;;2.00;0.80;;;;;;;;;;5031066;28;20049;-68
2022/05/14 15:03:21;;;;;;;2.63;1.00;;;;;;;;;;5033036;28;20049;-68
2022/05/14 15:05:49;;;;;;;4.38;1.00;;;;;;;;;;5034726;28;20103;-68
2022/05/14 15:08:17;;;;;;;3.63;1.00;;;;;;;;;;5034558;28;20050;-69
2022/05/14 15:10:44;;;;;;;3.35;0.77;;;;;;;;;;5033415;28;20045;-68
2022/05/14 15:13:12;;;;;;;3.33;1.00;;;;;;;;;;5034461;28;20056;-69
2022/05/14 15:15:43;;;;;;;1.63;0.70;;;;;;;;;;5049877;28;20060;-69
2022/05/14 15:18:10;;;;;;;2.85;1.00;;;;;;;;;;5034563;28;20053;-69
2022/05/14 15:20:37;;;;;;;1.73;0.77;;;;;;;;;;5034240;28;20496;-69
2022/05/14 15:23:04;;;;;;;3.15;1.25;;;;;;;;;;5034336;28;20076;-68
2022/05/14 15:25:31;;;;;;;3.97;1.08;;;;;;;;;;5034282;28;20045;-69
2022/05/14 15:27:58;;;;;;;2.10;0.77;;;;;;;;;;5034093;28;20042;-69
2022/05/14 15:30:24;;;;;;;1.13;0.70;;;;;;;;;;5034466;28;20123;-69
2022/05/14 15:32:51;;;;;;;3.88;0.85;;;;;;;;;;5032880;28;20511;-69